Time;durP1;ratioP1;P1;durP2;ratioP2;P2;SDS_P1;SDS_P2;PMS_P1;PMS_P2;Temp;Humidity;BMP_temperature;BMP_pressure;BME280_temperature;BME280_humidity;BME280_pressure;Samples;Min_cycle;Max_cycle;Signal;HPM_P1;HPM_P2
2023/12/06 00:00:10;;;;;;;;;;;;;;;5.15;66.54;99730.72;4405667;32;32290;-72
2023/12/06 00:02:37;;;;;;;;;;;;;;;5.28;66.40;99729.06;4418236;32;33609;-72
2023/12/06 00:05:05;;;;;;;;;;;;;;;5.19;66.54;99727.56;4420069;32;34426;-72
2023/12/06 00:07:32;;;;;;;;;;;;;;;5.33;66.49;99731.91;4418504;32;34223;-73
2023/12/06 00:10:00;;;;;;;;;;;;;;;5.25;66.64;99731.44;4419145;32;34846;-72
2023/12/06 00:12:28;;;;;;;;;;;;;;;5.41;66.35;99727.25;4418537;32;33939;-73
2023/12/06 00:14:55;;;;;;;;;;;;;;;5.47;65.86;99727.66;4418893;32;34396;-72
2023/12/06 00:17:22;;;;;;;;;;;;;;;5.06;67.04;99723.31;4419930;32;33575;-72
2023/12/06 00:19:50;;;;;;;;;;;;;;;5.35;66.23;99724.31;4418795;32;33142;-72
2023/12/06 00:22:18;;;;;;;;;;;;;;;5.39;65.99;99723.69;4420148;32;33490;-72
2023/12/06 00:24:45;;;;;;;;;;;;;;;5.19;66.56;99725.88;4421641;32;34371;-73
2023/12/06 00:27:13;;;;;;;;;;;;;;;5.28;66.30;99720.47;4421054;32;33522;-73
2023/12/06 00:29:41;;;;;;;;;;;;;;;5.21;66.40;99714.03;4420979;32;34627;-72
2023/12/06 00:32:08;;;;;;;;;;;;;;;5.34;66.20;99717.41;4421484;32;33960;-72
2023/12/06 00:34:36;;;;;;;;;;;;;;;5.36;66.20;99713.25;4421489;32;34389;-72
2023/12/06 00:37:03;;;;;;;;;;;;;;;5.23;66.53;99711.56;4421749;32;33690;-73
2023/12/06 00:39:31;;;;;;;;;;;;;;;5.23;66.67;99715.00;4408160;32;34543;-73
2023/12/06 00:41:59;;;;;;;;;;;;;;;5.42;66.27;99703.37;4420590;32;33994;-73
2023/12/06 00:44:26;;;;;;;;;;;;;;;5.36;66.40;99710.69;4421840;32;34443;-72
2023/12/06 00:46:54;;;;;;;;;;;;;;;5.24;66.75;99703.97;4421633;32;33042;-72
2023/12/06 00:49:21;;;;;;;;;;;;;;;5.34;66.49;99702.00;4419877;32;33918;-73
2023/12/06 00:51:48;;;;;;;;;;;;;;;5.53;65.82;99702.38;4419053;32;34204;-73
2023/12/06 00:54:16;;;;;;;;;;;;;;;5.40;66.35;99700.69;4421789;32;34758;-72
2023/12/06 00:56:43;;;;;;;;;;;;;;;5.44;66.40;99699.22;4422166;32;33724;-72
2023/12/06 00:59:10;;;;;;;;;;;;;;;5.48;66.35;99689.22;4422286;32;34005;-72
2023/12/06 01:01:38;;;;;;;;;;;;;;;5.37;66.87;99704.72;4421310;32;34382;-73
2023/12/06 01:04:05;;;;;;;;;;;;;;;5.25;67.24;99698.06;4421598;32;34283;-72
2023/12/06 01:06:32;;;;;;;;;;;;;;;5.39;66.72;99703.16;4421248;32;33132;-72
2023/12/06 01:09:00;;;;;;;;;;;;;;;5.44;66.79;99701.78;4421045;32;33820;-72
2023/12/06 01:11:27;;;;;;;;;;;;;;;5.47;66.73;99707.12;4421960;32;34166;-72
2023/12/06 01:13:55;;;;;;;;;;;;;;;5.65;65.33;99692.84;4421581;32;34955;-72
2023/12/06 01:16:22;;;;;;;;;;;;;;;5.58;65.82;99700.97;4421466;32;34092;-72
2023/12/06 01:18:50;;;;;;;;;;;;;;;5.40;66.55;99697.25;4421847;32;33780;-73
2023/12/06 01:21:18;;;;;;;;;;;;;;;5.48;66.43;99693.47;4421813;32;33694;-72
2023/12/06 01:23:45;;;;;;;;;;;;;;;5.49;66.46;99688.44;4420778;32;34965;-73
2023/12/06 01:26:12;;;;;;;;;;;;;;;5.45;66.73;99690.72;4421857;32;33339;-72
2023/12/06 01:28:41;;;;;;;;;;;;;;;5.56;66.57;99681.97;4421746;32;34123;-73
2023/12/06 01:31:08;;;;;;;;;;;;;;;5.57;66.56;99683.78;4420917;32;34862;-72
2023/12/06 01:33:36;;;;;;;;;;;;;;;5.51;66.67;99676.56;4419016;32;34743;-73
2023/12/06 01:36:03;;;;;;;;;;;;;;;5.57;66.56;99676.06;4421770;32;33068;-72
2023/12/06 01:38:30;;;;;;;;;;;;;;;5.67;66.31;99670.69;4421541;32;34625;-73
2023/12/06 01:40:58;;;;;;;;;;;;;;;5.68;66.24;99669.03;4421803;32;34234;-72
2023/12/06 01:43:25;;;;;;;;;;;;;;;5.55;66.46;99669.94;4421802;32;34645;-73
2023/12/06 01:45:52;;;;;;;;;;;;;;;5.64;66.48;99670.53;4419746;32;33954;-72
2023/12/06 01:48:19;;;;;;;;;;;;;;;5.60;66.47;99666.00;4413011;32;33520;-73
2023/12/06 01:50:47;;;;;;;;;;;;;;;5.53;66.64;99665.50;4404220;32;34259;-72
2023/12/06 01:53:15;;;;;;;;;;;;;;;5.63;66.57;99668.72;4406982;32;32706;-72
2023/12/06 01:55:42;;;;;;;;;;;;;;;5.46;66.83;99664.22;4408574;32;33329;-74
2023/12/06 01:58:09;;;;;;;;;;;;;;;5.58;66.42;99657.31;4408228;32;34045;-73
2023/12/06 02:00:37;;;;;;;;;;;;;;;5.60;66.56;99660.84;4408064;32;32636;-73
2023/12/06 02:03:05;;;;;;;;;;;;;;;5.56;66.48;99651.16;4422428;32;34557;-73
2023/12/06 02:05:32;;;;;;;;;;;;;;;5.59;66.62;99655.63;4407943;32;33023;-73
2023/12/06 02:08:00;;;;;;;;;;;;;;;5.64;66.47;99649.97;4396583;32;33856;-73
2023/12/06 02:10:27;;;;;;;;;;;;;;;5.63;66.45;99644.72;4416246;32;33610;-73
2023/12/06 02:12:55;;;;;;;;;;;;;;;5.60;66.51;99645.44;4421124;32;34835;-73
2023/12/06 02:15:24;;;;;;;;;;;;;;;5.59;66.66;99646.22;4411143;32;33664;-73
2023/12/06 02:17:52;;;;;;;;;;;;;;;5.61;66.80;99642.06;4407231;32;34141;-73
2023/12/06 02:20:19;;;;;;;;;;;;;;;5.72;66.36;99635.91;4412495;32;34022;-73
2023/12/06 02:22:48;;;;;;;;;;;;;;;5.72;66.30;99643.59;4414275;32;34921;-74
2023/12/06 02:25:15;;;;;;;;;;;;;;;5.69;66.43;99638.28;4412363;32;34472;-72
2023/12/06 02:27:43;;;;;;;;;;;;;;;5.75;66.30;99636.88;4403289;32;34519;-72
2023/12/06 02:30:11;;;;;;;;;;;;;;;5.75;66.08;99636.88;4418555;32;34036;-73
2023/12/06 02:32:38;;;;;;;;;;;;;;;5.69;66.08;99633.13;4417524;32;34431;-73
2023/12/06 02:35:08;;;;;;;;;;;;;;;5.83;65.81;99631.44;4411070;32;33298;-74
2023/12/06 02:37:35;;;;;;;;;;;;;;;5.69;66.20;99633.13;4404629;32;34167;-72
2023/12/06 02:40:04;;;;;;;;;;;;;;;5.69;66.14;99625.41;4418484;32;33700;-72
2023/12/06 02:42:31;;;;;;;;;;;;;;;5.53;66.68;99625.28;4411460;32;34485;-72
2023/12/06 02:44:58;;;;;;;;;;;;;;;5.57;66.59;99619.53;4409087;32;34273;-74
2023/12/06 02:47:26;;;;;;;;;;;;;;;5.54;66.85;99626.16;4411051;32;34772;-74
2023/12/06 02:49:53;;;;;;;;;;;;;;;5.45;66.92;99631.62;4410236;32;34248;-72
2023/12/06 02:52:20;;;;;;;;;;;;;;;5.50;66.96;99628.56;4422245;32;34028;-74
2023/12/06 02:54:48;;;;;;;;;;;;;;;5.48;67.01;99627.56;4413971;32;32953;-73
2023/12/06 02:57:15;;;;;;;;;;;;;;;5.59;66.91;99620.53;4413752;32;33879;-73
2023/12/06 02:59:42;;;;;;;;;;;;;;;5.48;67.15;99634.38;4412972;32;33753;-74
2023/12/06 03:02:10;;;;;;;;;;;;;;;5.57;66.97;99622.09;4411730;32;34613;-72
2023/12/06 03:04:37;;;;;;;;;;;;;;;5.51;67.12;99626.87;4422484;32;33605;-74
2023/12/06 03:07:04;;;;;;;;;;;;;;;5.56;67.08;99622.88;4421554;32;33956;-72
2023/12/06 03:09:32;;;;;;;;;;;;;;;5.56;67.12;99620.31;4417363;32;34019;-72
2023/12/06 03:11:59;;;;;;;;;;;;;;;5.47;67.31;99630.06;4419530;32;34593;-74
2023/12/06 03:14:26;;;;;;;;;;;;;;;5.57;67.05;99627.25;4412352;32;34238;-74
2023/12/06 03:16:54;;;;;;;;;;;;;;;5.58;67.28;99618.75;4410690;32;34171;-72
2023/12/06 03:19:21;;;;;;;;;;;;;;;5.59;67.36;99615.38;4414076;32;33618;-73
2023/12/06 03:21:48;;;;;;;;;;;;;;;5.57;67.24;99627.25;4409226;32;34329;-74
2023/12/06 03:24:16;;;;;;;;;;;;;;;5.56;67.34;99622.88;4421801;32;33610;-73
2023/12/06 03:26:43;;;;;;;;;;;;;;;5.57;67.30;99622.09;4400230;32;32536;-74
2023/12/06 03:29:10;;;;;;;;;;;;;;;5.61;67.28;99618.06;4421484;32;34878;-73
2023/12/06 03:31:37;;;;;;;;;;;;;;;5.42;67.80;99631.44;4421670;32;35026;-72
2023/12/06 03:34:05;;;;;;;;;;;;;;;5.62;67.02;99625.84;4421916;32;33442;-72
2023/12/06 03:36:32;;;;;;;;;;;;;;;5.42;67.64;99627.19;4421079;32;34547;-72
2023/12/06 03:39:00;;;;;;;;;;;;;;;5.62;67.08;99620.72;4407364;32;33279;-74
2023/12/06 03:41:27;;;;;;;;;;;;;;;5.51;67.44;99621.75;4422105;32;34951;-73
2023/12/06 03:43:55;;;;;;;;;;;;;;;5.31;68.11;99626.53;4416024;32;33520;-74
2023/12/06 03:46:29;;;;;;;;;;;;;;;5.49;67.51;99623.31;4411799;32;33939;-72
2023/12/06 03:48:57;;;;;;;;;;;;;;;5.49;67.57;99628.47;4421024;32;34066;-74
2023/12/06 03:51:24;;;;;;;;;;;;;;;5.43;67.83;99623.84;4420323;32;34421;-75
2023/12/06 03:53:52;;;;;;;;;;;;;;;5.50;67.50;99622.50;4413911;32;33075;-72
2023/12/06 03:56:19;;;;;;;;;;;;;;;5.83;66.37;99620.22;4418922;32;33850;-73
2023/12/06 03:58:46;;;;;;;;;;;;;;;5.78;66.60;99616.53;4420752;32;34155;-74
2023/12/06 04:01:14;;;;;;;;;;;;;;;5.74;66.61;99614.53;4422794;32;34199;-73
2023/12/06 04:03:41;;;;;;;;;;;;;;;5.64;67.30;99619.13;4418701;32;33518;-74
2023/12/06 04:06:09;;;;;;;;;;;;;;;5.81;66.56;99621.81;4413938;32;34143;-75
2023/12/06 04:08:37;;;;;;;;;;;;;;;5.70;66.69;99619.50;4413711;32;34292;-74
2023/12/06 04:11:04;;;;;;;;;;;;;;;5.75;66.77;99624.91;4407694;32;34405;-75
2023/12/06 04:13:32;;;;;;;;;;;;;;;5.71;66.90;99616.12;4421272;32;33096;-73
2023/12/06 04:15:59;;;;;;;;;;;;;;;5.71;66.90;99626.41;4420474;32;33681;-73
2023/12/06 04:18:27;;;;;;;;;;;;;;;5.66;67.10;99627.81;4405995;32;33860;-73
2023/12/06 04:20:54;;;;;;;;;;;;;;;5.70;67.06;99624.62;4415446;32;34546;-72
2023/12/06 04:23:21;;;;;;;;;;;;;;;5.39;68.37;99628.66;4415425;32;33812;-75
2023/12/06 04:25:49;;;;;;;;;;;;;;;5.54;68.01;99616.75;4420957;32;34946;-72
2023/12/06 04:28:16;;;;;;;;;;;;;;;5.50;68.15;99618.28;4414843;32;35095;-73
2023/12/06 04:30:43;;;;;;;;;;;;;;;5.55;68.06;99613.41;4415556;32;35156;-73
2023/12/06 04:33:11;;;;;;;;;;;;;;;5.56;68.23;99614.31;4422665;32;33389;-75
2023/12/06 04:35:38;;;;;;;;;;;;;;;5.72;67.52;99607.63;4417421;32;34172;-72
2023/12/06 04:38:05;;;;;;;;;;;;;;;5.50;68.02;99609.66;4416201;32;34291;-72
2023/12/06 04:40:33;;;;;;;;;;;;;;;5.58;68.13;99608.47;4419227;32;35333;-72
2023/12/06 04:43:01;;;;;;;;;;;;;;;5.57;68.40;99606.69;4422365;32;33422;-73
2023/12/06 04:45:29;;;;;;;;;;;;;;;5.50;68.48;99607.09;4402020;32;35026;-75
2023/12/06 04:47:56;;;;;;;;;;;;;;;5.74;68.12;99609.38;4402353;32;34693;-73
2023/12/06 04:50:24;;;;;;;;;;;;;;;5.94;66.74;99615.75;4410969;32;36005;-74
2023/12/06 04:52:51;;;;;;;;;;;;;;;5.75;67.18;99611.19;4414799;32;33609;-72
2023/12/06 04:55:19;;;;;;;;;;;;;;;5.51;68.10;99602.06;4412523;32;34183;-73
2023/12/06 04:57:46;;;;;;;;;;;;;;;5.43;69.02;99597.25;4411989;32;33970;-73
2023/12/06 05:00:14;;;;;;;;;;;;;;;5.45;68.67;99600.81;4418850;32;34296;-72
2023/12/06 05:02:44;;;;;;;;;;;;;;;5.43;68.82;99602.41;4419437;32;33155;-74
2023/12/06 05:05:12;;;;;;;;;;;;;;;5.58;68.72;99592.16;4414435;32;34116;-72
2023/12/06 05:07:40;;;;;;;;;;;;;;;5.59;69.02;99589.69;4414489;32;33675;-73
2023/12/06 05:10:07;;;;;;;;;;;;;;;5.53;68.75;99591.88;4421767;32;35189;-74
2023/12/06 05:12:34;;;;;;;;;;;;;;;5.59;68.96;99593.94;4419582;32;33187;-73
2023/12/06 05:15:03;;;;;;;;;;;;;;;5.42;69.71;99591.22;4420296;32;33960;-72
2023/12/06 05:17:31;;;;;;;;;;;;;;;5.53;69.80;99591.00;4413889;32;33889;-73
2023/12/06 05:19:58;;;;;;;;;;;;;;;5.60;69.55;99586.34;4416509;32;34221;-73
2023/12/06 05:22:25;;;;;;;;;;;;;;;5.64;69.52;99593.44;4417351;32;34345;-73
2023/12/06 05:24:53;;;;;;;;;;;;;;;5.83;69.19;99587.72;4414225;32;33454;-73
2023/12/06 05:27:21;;;;;;;;;;;;;;;5.77;69.54;99595.03;4412072;32;34296;-74
2023/12/06 05:29:49;;;;;;;;;;;;;;;5.86;69.11;99599.88;4420548;32;34895;-72
2023/12/06 05:32:17;;;;;;;;;;;;;;;5.79;69.12;99592.56;4416743;32;32568;-73
2023/12/06 05:34:44;;;;;;;;;;;;;;;5.78;69.43;99595.97;4421815;32;34221;-74
2023/12/06 05:37:11;;;;;;;;;;;;;;;5.84;69.55;99589.47;4418113;32;34781;-73
2023/12/06 05:39:39;;;;;;;;;;;;;;;5.85;69.50;99593.84;4419957;32;34044;-74
2023/12/06 05:42:06;;;;;;;;;;;;;;;5.82;69.76;99597.91;4419158;32;33961;-74
2023/12/06 05:44:34;;;;;;;;;;;;;;;6.03;68.53;99601.78;4420316;32;33823;-72
2023/12/06 05:47:02;;;;;;;;;;;;;;;6.04;68.19;99606.13;4411047;32;34255;-74
2023/12/06 05:49:29;;;;;;;;;;;;;;;5.93;68.67;99617.44;4419459;32;34407;-72
2023/12/06 05:51:56;;;;;;;;;;;;;;;5.83;69.20;99604.81;4415222;32;34132;-75
2023/12/06 05:54:24;;;;;;;;;;;;;;;5.84;69.25;99604.91;4414467;32;34861;-73
2023/12/06 05:56:51;;;;;;;;;;;;;;;5.97;68.76;99598.88;4417250;32;33961;-75
2023/12/06 05:59:18;;;;;;;;;;;;;;;5.87;69.05;99604.19;4405055;32;34084;-74
2023/12/06 06:01:46;;;;;;;;;;;;;;;5.97;69.03;99604.00;4419526;32;34377;-75
2023/12/06 06:04:14;;;;;;;;;;;;;;;5.92;68.87;99592.50;4420596;32;34116;-72
2023/12/06 06:06:41;;;;;;;;;;;;;;;5.86;71.16;99592.16;4415991;32;33895;-72
2023/12/06 06:09:09;;;;;;;;;;;;;;;5.91;69.48;99601.03;4422417;32;35080;-75
2023/12/06 06:11:36;;;;;;;;;;;;;;;5.88;69.61;99595.69;4402180;32;31965;-74
2023/12/06 06:14:03;;;;;;;;;;;;;;;5.78;69.96;99598.53;4396524;32;34735;-72
2023/12/06 06:16:31;;;;;;;;;;;;;;;5.97;69.12;99609.16;4413981;32;34078;-74
2023/12/06 06:18:58;;;;;;;;;;;;;;;6.07;68.29;99605.44;4414158;32;35141;-73
2023/12/06 06:21:26;;;;;;;;;;;;;;;5.72;68.95;99607.63;4419632;32;33377;-75
2023/12/06 06:23:53;;;;;;;;;;;;;;;5.79;68.94;99608.00;4409145;32;33910;-72
2023/12/06 06:26:20;;;;;;;;;;;;;;;5.85;68.71;99600.66;4405808;32;32620;-75
2023/12/06 06:28:48;;;;;;;;;;;;;;;6.10;67.99;99611.66;4415774;32;33982;-73
2023/12/06 06:31:15;;;;;;;;;;;;;;;5.89;68.76;99615.44;4416554;32;34072;-73
2023/12/06 06:33:43;;;;;;;;;;;;;;;5.83;69.04;99612.53;4416174;32;33897;-74
2023/12/06 06:36:10;;;;;;;;;;;;;;;5.82;68.90;99615.91;4416360;32;34117;-73
2023/12/06 06:38:37;;;;;;;;;;;;;;;5.98;68.82;99626.34;4393837;32;32798;-74
2023/12/06 06:41:05;;;;;;;;;;;;;;;6.10;68.09;99621.03;4416950;32;33381;-74
2023/12/06 06:43:33;;;;;;;;;;;;;;;5.93;68.41;99612.31;4399753;32;33987;-74
2023/12/06 06:46:01;;;;;;;;;;;;;;;5.78;68.96;99621.66;4413650;32;35360;-76
2023/12/06 06:48:28;;;;;;;;;;;;;;;5.83;69.08;99618.56;4413223;32;34214;-76
2023/12/06 06:50:56;;;;;;;;;;;;;;;5.80;69.17;99622.63;4400364;32;32231;-73
2023/12/06 06:53:23;;;;;;;;;;;;;;;5.84;69.22;99622.03;4415780;32;33977;-74
2023/12/06 06:55:50;;;;;;;;;;;;;;;5.89;69.17;99630.88;4415102;32;34163;-74
2023/12/06 06:58:18;;;;;;;;;;;;;;;5.90;69.16;99632.66;4418314;32;34199;-73
2023/12/06 07:00:45;;;;;;;;;;;;;;;5.91;69.37;99624.19;4414925;32;33297;-73
2023/12/06 07:03:13;;;;;;;;;;;;;;;5.99;69.35;99633.25;4415394;32;33499;-76
2023/12/06 07:05:40;;;;;;;;;;;;;;;6.10;69.02;99632.22;4413315;32;34038;-74
2023/12/06 07:08:09;;;;;;;;;;;;;;;6.04;69.21;99625.81;4411535;32;34736;-74
2023/12/06 07:10:38;;;;;;;;;;;;;;;5.91;69.65;99634.47;4415933;32;32440;-74
2023/12/06 07:13:06;;;;;;;;;;;;;;;5.88;69.82;99632.56;4415957;32;34890;-74
2023/12/06 07:15:34;;;;;;;;;;;;;;;6.17;69.22;99628.31;4417135;32;34271;-75
2023/12/06 07:18:02;;;;;;;;;;;;;;;6.31;68.28;99636.84;4417894;32;34531;-73
2023/12/06 07:20:30;;;;;;;;;;;;;;;6.26;68.44;99635.72;4418101;32;34311;-75
2023/12/06 07:23:10;;;;;;;;;;;;;;;6.12;69.24;99644.28;4417737;32;34133;-76
2023/12/06 07:25:37;;;;;;;;;;;;;;;6.04;69.47;99642.13;4417319;32;34008;-75
2023/12/06 07:28:04;;;;;;;;;;;;;;;6.05;69.61;99643.03;4417492;32;34528;-75
2023/12/06 07:30:32;;;;;;;;;;;;;;;6.07;69.60;99647.47;4416325;32;33543;-75
2023/12/06 07:32:59;;;;;;;;;;;;;;;6.07;69.61;99647.47;4416515;32;33974;-74
2023/12/06 07:35:27;;;;;;;;;;;;;;;6.07;69.77;99646.59;4418217;32;34556;-75
2023/12/06 07:37:54;;;;;;;;;;;;;;;6.44;68.15;99644.50;4417519;32;34040;-74
2023/12/06 07:40:22;;;;;;;;;;;;;;;6.38;68.38;99649.28;4417450;32;33265;-74
2023/12/06 07:42:49;;;;;;;;;;;;;;;6.53;67.66;99643.25;4417454;32;34667;-73
2023/12/06 07:45:17;;;;;;;;;;;;;;;6.42;67.84;99640.94;4417661;32;34862;-74
2023/12/06 07:47:44;;;;;;;;;;;;;;;6.38;68.45;99639.00;4417541;32;35044;-73
2023/12/06 07:50:12;;;;;;;;;;;;;;;6.43;68.25;99632.44;4404332;32;33029;-73
2023/12/06 07:52:40;;;;;;;;;;;;;;;6.35;68.23;99637.91;4417030;32;34249;-75
2023/12/06 07:55:07;;;;;;;;;;;;;;;6.21;68.14;99640.56;4418002;32;34138;-73
2023/12/06 07:57:35;;;;;;;;;;;;;;;6.09;68.94;99647.56;4416172;32;34146;-76
2023/12/06 08:00:04;;;;;;;;;;;;;;;5.90;70.45;99640.38;4417578;32;33836;-75
2023/12/06 08:02:42;;;;;;;;;;;;;;;5.94;71.67;99644.91;4404883;32;34030;-75
2023/12/06 08:05:10;;;;;;;;;;;;;;;5.86;70.52;99646.12;4418041;32;34930;-72
2023/12/06 08:07:38;;;;;;;;;;;;;;;5.86;70.01;99641.88;4416152;32;34274;-75
2023/12/06 08:10:10;;;;;;;;;;;;;;;5.70;71.04;99642.63;4417868;32;33551;-73
2023/12/06 08:12:37;;;;;;;;;;;;;;;5.65;71.15;99641.44;4403281;32;32561;-75
2023/12/06 08:15:05;;;;;;;;;;;;;;;5.69;71.18;99638.28;4417322;32;33712;-74
2023/12/06 08:17:33;;;;;;;;;;;;;;;5.85;70.58;99639.19;4416336;32;34009;-73
2023/12/06 08:20:00;;;;;;;;;;;;;;;5.78;71.40;99640.53;4401448;32;33605;-75
2023/12/06 08:22:28;;;;;;;;;;;;;;;5.75;71.87;99647.16;4401169;32;33652;-74
2023/12/06 08:24:57;;;;;;;;;;;;;;;5.95;71.34;99641.59;4412605;32;34160;-74
2023/12/06 08:27:28;;;;;;;;;;;;;;;6.02;71.35;99638.56;4415362;32;34231;-74
2023/12/06 08:29:56;;;;;;;;;;;;;;;6.25;70.40;99636.50;4414760;32;33590;-74
2023/12/06 08:32:24;;;;;;;;;;;;;;;6.15;70.99;99639.31;4401349;32;34072;-73
2023/12/06 08:34:51;;;;;;;;;;;;;;;6.28;70.65;99641.84;4414094;32;33936;-74
2023/12/06 08:37:19;;;;;;;;;;;;;;;6.31;70.56;99642.00;4415286;32;34322;-76
2023/12/06 08:39:47;;;;;;;;;;;;;;;6.40;70.09;99652.84;4413605;32;33311;-76
2023/12/06 08:42:15;;;;;;;;;;;;;;;6.54;69.89;99652.75;4389412;32;34790;-76
2023/12/06 08:44:42;;;;;;;;;;;;;;;6.53;69.89;99648.38;4416135;32;34219;-74
2023/12/06 08:47:12;;;;;;;;;;;;;;;6.67;69.67;99647.53;4403169;32;33641;-75
2023/12/06 08:49:41;;;;;;;;;;;;;;;6.64;69.78;99652.47;4424289;32;33583;-76
2023/12/06 08:52:08;;;;;;;;;;;;;;;6.68;70.13;99646.72;4416592;32;34245;-74
2023/12/06 08:54:37;;;;;;;;;;;;;;;6.76;69.58;99645.47;4404651;32;33921;-75
2023/12/06 08:57:05;;;;;;;;;;;;;;;6.82;69.28;99648.41;4393063;32;34349;-75
2023/12/06 08:59:32;;;;;;;;;;;;;;;6.88;69.18;99645.28;4397483;32;32997;-75
2023/12/06 09:02:00;;;;;;;;;;;;;;;6.80;69.48;99641.38;4418360;32;34060;-75
2023/12/06 09:04:28;;;;;;;;;;;;;;;6.86;69.10;99640.06;4404138;32;33720;-75
2023/12/06 09:06:56;;;;;;;;;;;;;;;6.72;69.44;99640.94;4415235;32;34548;-75
2023/12/06 09:09:26;;;;;;;;;;;;;;;6.56;70.27;99639.16;4418101;32;35434;-75
2023/12/06 09:11:53;;;;;;;;;;;;;;;6.72;69.96;99640.94;4417978;32;34835;-74
2023/12/06 09:14:21;;;;;;;;;;;;;;;6.60;70.29;99635.09;4418917;32;34019;-75
2023/12/06 09:16:48;;;;;;;;;;;;;;;6.65;70.20;99634.56;4418281;32;34346;-76
2023/12/06 09:19:17;;;;;;;;;;;;;;;7.02;69.64;99635.75;4419020;32;32995;-74
2023/12/06 09:21:45;;;;;;;;;;;;;;;6.87;69.79;99640.94;4418151;32;33791;-75
2023/12/06 09:24:13;;;;;;;;;;;;;;;6.79;70.00;99640.50;4414565;32;33193;-75
2023/12/06 09:26:41;;;;;;;;;;;;;;;6.97;69.48;99642.34;4417343;32;33769;-75
2023/12/06 09:29:09;;;;;;;;;;;;;;;6.87;69.88;99639.22;4419339;32;32904;-75
2023/12/06 09:31:37;;;;;;;;;;;;;;;7.03;69.32;99633.28;4417131;32;34233;-75
2023/12/06 09:34:04;;;;;;;;;;;;;;;7.27;68.49;99632.88;4418288;32;33663;-75
2023/12/06 09:36:33;;;;;;;;;;;;;;;7.18;68.42;99630.66;4415824;32;33190;-75
2023/12/06 09:39:01;;;;;;;;;;;;;;;7.21;68.45;99633.41;4415746;32;34003;-75
2023/12/06 09:41:29;;;;;;;;;;;;;;;7.13;68.47;99628.63;4416662;32;33538;-75
2023/12/06 09:43:56;;;;;;;;;;;;;;;7.08;69.06;99630.94;4416615;32;34213;-75
2023/12/06 09:46:24;;;;;;;;;;;;;;;7.05;69.24;99625.63;4398434;32;34523;-75
2023/12/06 09:48:52;;;;;;;;;;;;;;;7.01;69.27;99621.09;4419155;32;33381;-74
2023/12/06 09:51:19;;;;;;;;;;;;;;;7.02;69.17;99628.03;4419185;32;34506;-75
2023/12/06 09:53:47;;;;;;;;;;;;;;;7.11;69.04;99625.97;4416108;32;35037;-76
2023/12/06 09:56:14;;;;;;;;;;;;;;;6.92;69.28;99621.50;4401916;32;33214;-75
2023/12/06 09:58:43;;;;;;;;;;;;;;;6.89;69.57;99624.78;4417292;32;34420;-75
2023/12/06 10:01:10;;;;;;;;;;;;;;;7.07;69.16;99624.03;4416117;32;34901;-75
2023/12/06 10:03:38;;;;;;;;;;;;;;;7.09;68.87;99617.28;4416049;32;34222;-75
2023/12/06 10:06:06;;;;;;;;;;;;;;;7.16;68.71;99621.94;4403712;32;33932;-76
2023/12/06 10:08:36;;;;;;;;;;;;;;;7.16;68.64;99633.94;4418407;32;33160;-75
2023/12/06 10:11:03;;;;;;;;;;;;;;;7.20;68.57;99636.78;4417766;32;33610;-75
2023/12/06 10:13:34;;;;;;;;;;;;;;;7.11;68.91;99636.28;4417557;32;35608;-74
2023/12/06 10:16:02;;;;;;;;;;;;;;;7.01;69.37;99629.75;4404776;32;34424;-76
2023/12/06 10:18:30;;;;;;;;;;;;;;;7.11;68.90;99636.28;4418605;32;33368;-74
2023/12/06 10:20:57;;;;;;;;;;;;;;;7.14;68.48;99639.00;4405353;32;34530;-76
2023/12/06 10:23:24;;;;;;;;;;;;;;;7.13;68.46;99637.25;4402371;32;34150;-77
2023/12/06 10:25:52;;;;;;;;;;;;;;;7.00;68.86;99640.81;4419277;32;34288;-75
2023/12/06 10:28:20;;;;;;;;;;;;;;;7.14;68.31;99631.28;4418555;32;33730;-73
2023/12/06 10:30:58;;;;;;;;;;;;;;;7.11;68.37;99631.12;4415378;32;33812;-76
2023/12/06 10:33:26;;;;;;;;;;;;;;;7.18;70.33;99633.22;4399762;32;33134;-76
2023/12/06 10:35:53;;;;;;;;;;;;;;;7.18;69.52;99633.22;4418267;32;35032;-76
2023/12/06 10:38:21;;;;;;;;;;;;;;;7.13;69.76;99637.25;4404418;32;33350;-76
2023/12/06 10:40:48;;;;;;;;;;;;;;;7.26;69.40;99637.13;4418681;32;33061;-75
2023/12/06 10:43:15;;;;;;;;;;;;;;;7.09;69.85;99627.59;4417233;32;34108;-74
2023/12/06 10:45:45;;;;;;;;;;;;;;;7.12;69.37;99630.31;4401536;32;33995;-74
2023/12/06 10:48:12;;;;;;;;;;;;;;;7.05;69.42;99630.75;4401868;32;34056;-74
2023/12/06 10:50:40;;;;;;;;;;;;;;;7.08;69.21;99626.69;4418136;32;33871;-74
2023/12/06 10:53:07;;;;;;;;;;;;;;;7.11;69.07;99631.12;4404537;32;33219;-75
2023/12/06 10:55:35;;;;;;;;;;;;;;;7.23;68.92;99626.66;4403905;32;33940;-76
2023/12/06 10:58:02;;;;;;;;;;;;;;;7.06;69.40;99622.25;4403353;32;33220;-74
2023/12/06 11:00:29;;;;;;;;;;;;;;;7.07;69.43;99624.03;4397842;32;33041;-76
2023/12/06 11:02:57;;;;;;;;;;;;;;;7.31;68.96;99623.62;4391456;32;33574;-75
2023/12/06 11:05:24;;;;;;;;;;;;;;;7.44;68.01;99620.91;4417157;32;34486;-74
2023/12/06 11:08:11;;;;;;;;;;;;;;;7.37;68.42;99616.22;4390670;32;33740;-75
2023/12/06 11:10:39;;;;;;;;;;;;;;;7.28;68.86;99625.22;4416739;32;32788;-74
2023/12/06 11:13:09;;;;;;;;;;;;;;;7.29;68.64;99616.69;4413932;32;34214;-75
2023/12/06 11:15:43;;;;;;;;;;;;;;;7.28;68.71;99614.91;4395536;32;34553;-74
2023/12/06 11:18:14;;;;;;;;;;;;;;;7.17;69.24;99613.44;4418403;32;33745;-76
2023/12/06 11:20:43;;;;;;;;;;;;;;;7.18;68.93;99617.75;4416686;32;34605;-76
2023/12/06 11:23:10;;;;;;;;;;;;;;;7.38;68.37;99615.41;4416162;32;34035;-76
2023/12/06 11:25:45;;;;;;;;;;;;;;;7.32;68.70;99609.91;4402806;32;33956;-75
2023/12/06 11:28:13;;;;;;;;;;;;;;;7.35;68.67;99610.09;4384388;32;33176;-76
2023/12/06 11:30:45;;;;;;;;;;;;;;;7.32;68.83;99610.81;4413684;32;34367;-73
2023/12/06 11:33:14;;;;;;;;;;;;;;;7.23;68.91;99606.03;4410785;32;34166;-75
2023/12/06 11:35:45;;;;;;;;;;;;;;;7.46;68.29;99596.09;4402343;32;33457;-73
2023/12/06 11:38:12;;;;;;;;;;;;;;;7.65;71.08;99598.84;4415926;32;33141;-75
2023/12/06 11:40:48;;;;;;;;;;;;;;;7.38;71.07;99597.34;4413325;32;33026;-74
2023/12/06 11:43:15;;;;;;;;;;;;;;;7.65;68.81;99596.28;4417524;32;34865;-76
2023/12/06 11:45:43;;;;;;;;;;;;;;;7.41;69.45;99594.97;4415197;32;34031;-75
2023/12/06 11:48:14;;;;;;;;;;;;;;;7.33;69.21;99597.13;4400668;32;34259;-76
2023/12/06 11:50:43;;;;;;;;;;;;;;;7.42;68.87;99599.31;4416548;32;34136;-76
2023/12/06 11:53:11;;;;;;;;;;;;;;;7.52;68.08;99599.00;4414804;32;33889;-74
2023/12/06 11:55:42;;;;;;;;;;;;;;;7.53;67.91;99594.72;4412397;32;34092;-76
2023/12/06 11:58:10;;;;;;;;;;;;;;;7.38;68.06;99594.78;4413872;32;33383;-74
2023/12/06 12:00:38;;;;;;;;;;;;;;;7.29;68.52;99584.88;4402867;32;34454;-74
2023/12/06 12:03:06;;;;;;;;;;;;;;;7.31;68.57;99587.53;4402448;32;34164;-76
2023/12/06 12:05:33;;;;;;;;;;;;;;;7.20;69.55;99590.41;4398548;32;34548;-78
2023/12/06 12:08:03;;;;;;;;;;;;;;;7.31;69.41;99587.53;4413833;32;33308;-75
2023/12/06 12:10:31;;;;;;;;;;;;;;;7.37;69.01;99593.03;4416483;32;34751;-77
2023/12/06 12:12:59;;;;;;;;;;;;;;;7.43;68.45;99585.62;4416390;32;33735;-75
2023/12/06 12:15:28;;;;;;;;;;;;;;;7.45;67.91;99581.44;4416995;32;34957;-75
2023/12/06 12:17:55;;;;;;;;;;;;;;;7.40;67.73;99578.62;4417808;32;32608;-75
2023/12/06 12:20:23;;;;;;;;;;;;;;;7.26;68.03;99579.53;4419037;32;33870;-76
2023/12/06 12:22:51;;;;;;;;;;;;;;;7.23;68.42;99575.13;4419865;32;33003;-76
2023/12/06 12:25:19;;;;;;;;;;;;;;;7.22;68.40;99581.09;4419513;32;34343;-76
2023/12/06 12:27:47;;;;;;;;;;;;;;;7.29;68.45;99575.44;4418352;32;33636;-76
2023/12/06 12:30:14;;;;;;;;;;;;;;;7.16;68.94;99575.59;4401181;32;33758;-75
2023/12/06 12:32:43;;;;;;;;;;;;;;;7.28;71.61;99568.53;4404692;32;34782;-77
2023/12/06 12:35:10;;;;;;;;;;;;;;;7.25;70.76;99572.63;4404413;32;35039;-77
2023/12/06 12:37:38;;;;;;;;;;;;;;;7.26;70.21;99570.16;4404192;32;33175;-74
2023/12/06 12:40:06;;;;;;;;;;;;;;;7.28;69.29;99565.97;4404617;32;34124;-75
2023/12/06 12:42:35;;;;;;;;;;;;;;;7.23;69.63;99559.66;4404674;32;33865;-75
2023/12/06 12:45:02;;;;;;;;;;;;;;;7.26;69.12;99558.94;4416990;32;34914;-75
2023/12/06 12:47:30;;;;;;;;;;;;;;;7.18;69.36;99555.94;4416131;32;33972;-76
2023/12/06 12:49:57;;;;;;;;;;;;;;;7.27;69.07;99556.44;4402427;32;32873;-75
2023/12/06 12:52:24;;;;;;;;;;;;;;;7.18;69.10;99550.78;4403951;32;34853;-76
2023/12/06 12:54:52;;;;;;;;;;;;;;;7.06;69.29;99547.56;4403490;32;34154;-76
2023/12/06 12:57:19;;;;;;;;;;;;;;;6.81;69.58;99551.34;4416521;32;33548;-76
2023/12/06 12:59:47;;;;;;;;;;;;;;;6.85;69.53;99545.56;4387896;32;32481;-76